createdAt,value
2023-07-20T00:01:46.564Z,97947.69
2023-07-20T00:04:15.496Z,97953.69
2023-07-20T00:06:42.074Z,97942.69
2023-07-20T00:09:09.061Z,97945.09
2023-07-20T00:11:38.850Z,97936.44
2023-07-20T00:14:06.372Z,97944.66
2023-07-20T00:16:33.097Z,97941.22
2023-07-20T00:18:59.807Z,97945.88
2023-07-20T00:21:26.727Z,97942.53
2023-07-20T00:23:53.381Z,97944.69
2023-07-20T00:26:19.957Z,97923.94
2023-07-20T00:28:46.571Z,97925.78
2023-07-20T00:31:13.236Z,97937.16
2023-07-20T00:33:39.872Z,97940.78
2023-07-20T00:36:06.571Z,97946.00
2023-07-20T00:38:33.170Z,97940.13
2023-07-20T00:40:59.726Z,97937.00
2023-07-20T00:43:26.273Z,97930.47
2023-07-20T00:45:52.893Z,97921.75
2023-07-20T00:48:19.716Z,97924.66
2023-07-20T00:50:48.268Z,97920.56
2023-07-20T00:53:15.285Z,97915.72
2023-07-20T00:55:42.056Z,97937.28
2023-07-20T00:58:09.451Z,97950.41
2023-07-20T01:00:36.115Z,97943.13
2023-07-20T01:03:02.718Z,97935.31
2023-07-20T01:05:41.029Z,97942.03
2023-07-20T01:08:25.257Z,97938.50
2023-07-20T01:10:58.423Z,97935.31
2023-07-20T01:13:27.852Z,97939.56
2023-07-20T01:16:04.071Z,97935.31
2023-07-20T01:18:30.699Z,97950.19
2023-07-20T01:21:04.536Z,97945.06
2023-07-20T01:23:59.414Z,97937.91
2023-07-20T01:26:39.008Z,97926.31
2023-07-20T01:29:29.018Z,97927.50
2023-07-20T01:31:57.080Z,97927.41
2023-07-20T01:34:24.480Z,97929.44
2023-07-20T01:36:53.431Z,97931.22
2023-07-20T01:39:21.862Z,97941.44
2023-07-20T01:41:48.719Z,97939.66
2023-07-20T01:44:15.345Z,97935.84
2023-07-20T01:46:41.884Z,97937.16
2023-07-20T01:49:08.408Z,97943.03
2023-07-20T01:51:34.886Z,97945.38
2023-07-20T01:54:01.811Z,97952.09
2023-07-20T01:56:28.293Z,97946.88
2023-07-20T01:58:54.906Z,97950.41
2023-07-20T02:01:21.437Z,97952.81
2023-07-20T02:03:47.982Z,97947.22
2023-07-20T02:06:14.455Z,97946.13
2023-07-20T02:08:44.090Z,97945.09
2023-07-20T02:11:11.123Z,97959.69
2023-07-20T02:13:37.758Z,97956.81
2023-07-20T02:16:04.777Z,97965.53
2023-07-20T02:18:32.580Z,97959.31
2023-07-20T02:21:01.542Z,97954.09
2023-07-20T02:23:28.244Z,97962.03
2023-07-20T02:25:54.832Z,97964.72
2023-07-20T02:28:21.485Z,97975.31
2023-07-20T02:30:48.449Z,97979.69
2023-07-20T02:33:14.971Z,97977.06
2023-07-20T02:35:41.796Z,97985.81
2023-07-20T02:38:08.291Z,97989.00
2023-07-20T02:40:34.842Z,97989.91
2023-07-20T02:43:01.465Z,97985.09
2023-07-20T02:45:27.980Z,97986.09
2023-07-20T02:47:54.610Z,97991.50
2023-07-20T02:50:21.149Z,97981.38
2023-07-20T02:52:47.616Z,97983.13
2023-07-20T02:55:14.126Z,97986.44
2023-07-20T02:57:40.690Z,97987.63
2023-07-20T03:00:08.987Z,97982.72
2023-07-20T03:02:37.266Z,97980.47
2023-07-20T03:05:07.044Z,97985.97
2023-07-20T03:07:33.756Z,97982.78
2023-07-20T03:10:00.299Z,97987.53
2023-07-20T03:12:26.842Z,97993.09
2023-07-20T03:14:53.785Z,97993.41
2023-07-20T03:17:21.887Z,97996.03
2023-07-20T03:19:48.436Z,98005.69
2023-07-20T03:22:14.937Z,98007.56
2023-07-20T03:24:41.447Z,98010.25
2023-07-20T03:27:07.979Z,98004.38
2023-07-20T03:29:34.596Z,98025.19
2023-07-20T03:32:01.484Z,98017.97
2023-07-20T03:34:28.017Z,98019.44
2023-07-20T03:36:54.517Z,98015.00
2023-07-20T03:39:21.080Z,98014.91
2023-07-20T03:41:47.654Z,98014.81
2023-07-20T03:44:14.162Z,98013.72
2023-07-20T03:46:40.943Z,98022.44
2023-07-20T03:49:07.524Z,98017.34
2023-07-20T03:51:33.999Z,98018.25
2023-07-20T03:54:00.724Z,98025.22
2023-07-20T03:56:27.620Z,98018.16
2023-07-20T03:58:54.249Z,98023.03
2023-07-20T04:01:20.806Z,98032.66
2023-07-20T04:03:49.976Z,98035.94
2023-07-20T04:06:18.633Z,98030.28
2023-07-20T04:08:45.936Z,98042.84
2023-07-20T04:11:12.425Z,98046.47
2023-07-20T04:13:38.953Z,98045.75
2023-07-20T04:16:05.749Z,98048.09
2023-07-20T04:18:32.269Z,98051.56
2023-07-20T04:20:58.749Z,98051.88
2023-07-20T04:23:25.298Z,98053.81
2023-07-20T04:25:53.035Z,98058.41
2023-07-20T04:28:19.530Z,98056.81
2023-07-20T04:30:46.198Z,98057.53
2023-07-20T04:33:12.885Z,98063.47
2023-07-20T04:35:50.089Z,98058.75
2023-07-20T04:38:18.660Z,98065.06
2023-07-20T04:40:47.029Z,98054.63
2023-07-20T04:43:14.494Z,98059.72
2023-07-20T04:45:41.029Z,98060.66
2023-07-20T04:48:14.441Z,98064.38
2023-07-20T04:50:46.655Z,98068.06
2023-07-20T04:53:13.816Z,98072.47
2023-07-20T04:55:41.076Z,98066.69
2023-07-20T04:58:08.130Z,98076.41
2023-07-20T05:00:35.267Z,98070.69
2023-07-20T05:03:02.583Z,98069.50
2023-07-20T05:05:29.337Z,98069.84
2023-07-20T05:07:55.923Z,98073.72
2023-07-20T05:10:22.464Z,98080.41
2023-07-20T05:12:49.012Z,98080.31
2023-07-20T05:15:15.792Z,98082.22
2023-07-20T05:17:42.494Z,98076.25
2023-07-20T05:20:11.337Z,98079.47
2023-07-20T05:22:41.363Z,98086.50
2023-07-20T05:25:09.431Z,98086.31
2023-07-20T05:27:40.588Z,98085.97
2023-07-20T05:30:10.987Z,98087.16
2023-07-20T05:32:37.616Z,98086.78
2023-07-20T05:35:04.533Z,98085.81
2023-07-20T05:37:31.355Z,98095.72
2023-07-20T05:39:58.593Z,98086.81
2023-07-20T05:42:25.095Z,98083.31
2023-07-20T05:44:54.052Z,98086.13
2023-07-20T05:47:20.685Z,98093.47
2023-07-20T05:49:47.296Z,98082.25
2023-07-20T05:52:14.581Z,98086.25
2023-07-20T05:54:41.071Z,98087.28
2023-07-20T05:57:09.061Z,98084.53
2023-07-20T05:59:35.651Z,98085.38
2023-07-20T06:02:05.708Z,98085.00
2023-07-20T06:04:33.685Z,98092.78
2023-07-20T06:07:03.829Z,98100.09
2023-07-20T06:09:32.973Z,98097.75
2023-07-20T06:12:01.104Z,98091.31
2023-07-20T06:14:30.019Z,98106.31
2023-07-20T06:17:12.184Z,98088.56
2023-07-20T06:19:57.806Z,98090.31
2023-07-20T06:22:26.382Z,98095.38
2023-07-20T06:25:05.779Z,98090.63
2023-07-20T06:27:33.080Z,98096.38
2023-07-20T06:30:07.826Z,98104.72
2023-07-20T06:32:36.290Z,98097.59
2023-07-20T06:35:11.156Z,98102.13
2023-07-20T06:40:36.972Z,98095.59
2023-07-20T06:45:49.192Z,98091.97
2023-07-20T06:48:18.784Z,98091.44
2023-07-20T06:50:46.564Z,98088.59
2023-07-20T06:53:22.228Z,98091.09
2023-07-20T06:55:48.983Z,98096.25
2023-07-20T06:58:15.677Z,98091.50
2023-07-20T07:00:42.194Z,98105.06
2023-07-20T07:03:08.762Z,98105.31
2023-07-20T07:05:38.842Z,98094.81
2023-07-20T07:08:08.647Z,98102.53
2023-07-20T07:10:37.077Z,98093.31
2023-07-20T07:13:05.783Z,98095.47
2023-07-20T07:15:33.342Z,98092.66
2023-07-20T07:18:01.409Z,98092.84
2023-07-20T07:20:28.902Z,98089.94
2023-07-20T07:22:57.005Z,98092.88
2023-07-20T07:25:24.151Z,98091.63
2023-07-20T07:27:51.265Z,98084.16
2023-07-20T07:30:17.965Z,98087.66
2023-07-20T07:32:44.652Z,98091.25
2023-07-20T07:35:11.264Z,98092.72
2023-07-20T07:37:52.203Z,98085.88
2023-07-20T07:40:24.331Z,98087.16
2023-07-20T07:42:50.853Z,98084.25
2023-07-20T07:45:17.909Z,98080.03
2023-07-20T07:47:44.703Z,98092.88
2023-07-20T07:50:11.719Z,98090.59
2023-07-20T07:52:38.461Z,98088.38
2023-07-20T07:55:05.704Z,98090.59
2023-07-20T07:57:32.187Z,98096.66
2023-07-20T07:59:58.668Z,98090.34
2023-07-20T08:02:25.167Z,98085.19
2023-07-20T08:04:53.595Z,98094.41
2023-07-20T08:07:20.323Z,98091.94
2023-07-20T08:09:46.960Z,98092.78
2023-07-20T08:12:14.624Z,98105.69
2023-07-20T08:14:41.246Z,98094.75
2023-07-20T08:17:08.004Z,98099.66
2023-07-20T08:19:34.959Z,98099.22
2023-07-20T08:22:01.612Z,98100.53
2023-07-20T08:24:28.420Z,98094.75
2023-07-20T08:26:55.191Z,98099.94
2023-07-20T08:29:21.894Z,98090.63
2023-07-20T08:31:48.741Z,98091.28
2023-07-20T08:34:29.669Z,98076.19
2023-07-20T08:36:58.646Z,98089.19
2023-07-20T08:39:25.704Z,98102.06
2023-07-20T08:41:55.817Z,98093.84
2023-07-20T08:44:23.782Z,98092.78
2023-07-20T08:46:50.841Z,98088.88
2023-07-20T08:49:19.418Z,98101.06
2023-07-20T08:51:47.841Z,98091.94
2023-07-20T08:54:15.551Z,98095.09
2023-07-20T08:56:43.813Z,98096.09
2023-07-20T08:59:10.448Z,98090.13
2023-07-20T09:01:40.124Z,98092.13
2023-07-20T09:04:07.311Z,98084.34
2023-07-20T09:06:36.122Z,98088.94
2023-07-20T09:09:02.753Z,98097.16
2023-07-20T09:11:29.968Z,98089.75
2023-07-20T09:14:07.519Z,98089.44
2023-07-20T09:16:48.058Z,98090.59
2023-07-20T09:19:16.379Z,98086.56
2023-07-20T09:21:49.351Z,98086.88
2023-07-20T09:24:18.340Z,98085.06
2023-07-20T09:26:48.578Z,98084.41
2023-07-20T09:29:18.915Z,98091.81
2023-07-20T09:32:01.750Z,98083.47
2023-07-20T09:37:01.833Z,98087.72
2023-07-20T09:39:30.076Z,98090.03
2023-07-20T09:47:05.500Z,98085.44
2023-07-20T09:50:26.283Z,98091.09
2023-07-20T09:53:12.909Z,98082.41
2023-07-20T09:55:10.306Z,98078.19
2023-07-20T09:57:37.334Z,98084.09
2023-07-20T10:02:46.877Z,98079.41
2023-07-20T10:05:15.621Z,98075.56
2023-07-20T10:07:48.899Z,98084.06
2023-07-20T10:10:19.740Z,98075.34
2023-07-20T10:12:49.354Z,98075.56
2023-07-20T10:15:22.460Z,98078.19
2023-07-20T10:18:04.935Z,98075.94
2023-07-20T10:20:36.716Z,98066.78
2023-07-20T10:23:03.699Z,98062.34
2023-07-20T10:25:30.620Z,98062.44
2023-07-20T10:27:58.346Z,98060.94
2023-07-20T10:30:28.229Z,98044.75
2023-07-20T10:32:55.062Z,98044.59
2023-07-20T10:35:21.894Z,98048.69
2023-07-20T10:37:54.970Z,98047.09
2023-07-20T10:40:35.708Z,98041.13
2023-07-20T10:43:09.388Z,98044.38
2023-07-20T10:45:36.852Z,98044.78
2023-07-20T10:48:08.092Z,98038.56
2023-07-20T10:50:35.681Z,98039.53
2023-07-20T10:53:06.581Z,98041.13
2023-07-20T10:55:34.037Z,98038.41
2023-07-20T10:58:11.127Z,98040.47
2023-07-20T11:00:38.238Z,98042.25
2023-07-20T11:03:05.824Z,98037.06
2023-07-20T11:05:40.084Z,98034.97
2023-07-20T11:08:11.185Z,98038.13
2023-07-20T11:10:37.924Z,98041.75
2023-07-20T11:13:24.726Z,98026.81
2023-07-20T11:15:57.390Z,98023.47
2023-07-20T11:18:27.047Z,98023.56
2023-07-20T11:20:54.645Z,98026.19
2023-07-20T11:23:22.054Z,98026.94
2023-07-20T11:25:48.873Z,98026.75
2023-07-20T11:28:15.437Z,98029.41
2023-07-20T11:30:42.185Z,98028.66
2023-07-20T11:33:12.397Z,98035.41
2023-07-20T11:35:52.111Z,98038.47
2023-07-20T11:38:18.909Z,98032.38
2023-07-20T11:40:47.233Z,98028.09
2023-07-20T11:45:46.394Z,98035.97
2023-07-20T11:48:19.109Z,98032.50
2023-07-20T11:50:46.175Z,98021.81
2023-07-20T11:53:13.246Z,98008.25
2023-07-20T11:55:42.090Z,98012.66
2023-07-20T11:58:10.427Z,98012.59
2023-07-20T12:00:41.113Z,98013.19
2023-07-20T12:03:08.668Z,98017.13
2023-07-20T12:05:47.674Z,98006.75
2023-07-20T12:08:22.566Z,98003.72
2023-07-20T12:10:50.054Z,98000.31
2023-07-20T12:13:19.388Z,97998.34
2023-07-20T12:15:46.199Z,97993.63
2023-07-20T12:18:15.234Z,97995.28
2023-07-20T12:20:41.890Z,97994.69
2023-07-20T12:23:13.250Z,97998.56
2023-07-20T12:25:43.856Z,97985.50
2023-07-20T12:28:21.236Z,97984.03
2023-07-20T12:30:49.668Z,97990.41
2023-07-20T12:33:17.453Z,97989.03
2023-07-20T12:35:44.941Z,97987.13
2023-07-20T12:38:11.974Z,97984.38
2023-07-20T12:40:38.590Z,97975.56
2023-07-20T12:43:07.535Z,97980.91
2023-07-20T12:45:34.396Z,97989.44
2023-07-20T12:48:01.050Z,97979.56
2023-07-20T12:50:28.469Z,97979.28
2023-07-20T12:52:57.964Z,97972.66
2023-07-20T12:55:24.684Z,97971.91
2023-07-20T12:57:51.472Z,97973.19
2023-07-20T13:00:18.399Z,97973.94
2023-07-20T13:02:45.037Z,97963.59
2023-07-20T13:05:12.066Z,97970.19
2023-07-20T13:10:12.103Z,97963.84
2023-07-20T13:12:42.709Z,97968.47
2023-07-20T13:15:15.979Z,97962.13
2023-07-20T13:17:42.916Z,97963.22
2023-07-20T13:20:12.178Z,97955.47
2023-07-20T13:22:42.275Z,97957.47
2023-07-20T13:25:09.646Z,97949.88
2023-07-20T13:27:38.952Z,97944.19
2023-07-20T13:30:10.350Z,97939.59
2023-07-20T13:32:37.910Z,97940.16
2023-07-20T13:35:05.427Z,97940.34
2023-07-20T13:37:32.216Z,97947.53
2023-07-20T13:39:58.678Z,97949.41
2023-07-20T13:42:25.223Z,97944.34
2023-07-20T13:44:51.849Z,97944.22
2023-07-20T13:49:48.455Z,97942.97
2023-07-20T13:57:16.053Z,97942.28
2023-07-20T13:59:45.399Z,97934.25
2023-07-20T14:04:42.733Z,97928.44
2023-07-20T14:07:10.523Z,97925.97
2023-07-20T14:09:37.164Z,97913.59
2023-07-20T14:14:33.588Z,97922.63
2023-07-20T14:17:00.128Z,97910.47
2023-07-20T14:19:26.667Z,97916.63
2023-07-20T14:21:53.141Z,97919.38
2023-07-20T14:24:19.946Z,97912.78
2023-07-20T14:26:48.696Z,97918.31
2023-07-20T14:29:20.401Z,97913.84
2023-07-20T14:31:53.380Z,97916.16
2023-07-20T14:34:20.471Z,97907.19
2023-07-20T14:36:47.227Z,97909.69
2023-07-20T14:39:13.946Z,97902.53
2023-07-20T14:41:40.468Z,97896.75
2023-07-20T14:44:07.179Z,97900.63
2023-07-20T14:46:33.659Z,97906.63
2023-07-20T14:49:00.195Z,97901.50
2023-07-20T14:51:37.615Z,97904.47
2023-07-20T14:54:04.582Z,97897.75
2023-07-20T14:56:31.027Z,97892.13
2023-07-20T14:58:59.167Z,97897.41
2023-07-20T15:01:27.447Z,97898.72
2023-07-20T15:03:57.603Z,97887.19
2023-07-20T15:06:26.458Z,97886.75
2023-07-20T15:08:53.383Z,97894.06
2023-07-20T15:11:19.862Z,97887.81
2023-07-20T15:13:46.370Z,97887.63
2023-07-20T15:16:12.885Z,97886.03
2023-07-20T15:18:48.017Z,97877.66
2023-07-20T15:21:16.105Z,97889.34
2023-07-20T15:23:43.470Z,97890.44
2023-07-20T15:26:10.088Z,97885.03
2023-07-20T15:28:36.721Z,97882.97
2023-07-20T15:31:05.005Z,97877.28
2023-07-20T15:33:32.317Z,97877.13
2023-07-20T15:35:59.215Z,97876.00
2023-07-20T15:38:25.774Z,97872.84
2023-07-20T15:40:52.431Z,97870.88
2023-07-20T15:43:22.098Z,97881.28
2023-07-20T15:45:52.422Z,97874.19
2023-07-20T15:48:19.705Z,97869.63
2023-07-20T15:50:50.927Z,97871.31
2023-07-20T15:53:17.646Z,97869.47
2023-07-20T15:55:44.513Z,97864.91
2023-07-20T15:58:11.173Z,97863.31
2023-07-20T16:00:38.835Z,97859.78
2023-07-20T16:03:06.537Z,97852.94
2023-07-20T16:05:33.207Z,97852.84
2023-07-20T16:07:59.688Z,97856.09
2023-07-20T16:12:53.942Z,97842.16
2023-07-20T16:17:50.054Z,97844.03
2023-07-20T16:20:16.701Z,97847.78
2023-07-20T16:22:43.244Z,97851.09
2023-07-20T16:25:12.079Z,97838.59
2023-07-20T16:27:38.596Z,97848.28
2023-07-20T16:30:06.088Z,97845.47
2023-07-20T16:32:32.618Z,97848.41
2023-07-20T16:35:11.640Z,97844.63
2023-07-20T16:37:38.496Z,97843.28
2023-07-20T16:40:31.998Z,97837.84
2023-07-20T16:45:27.453Z,97840.63
2023-07-20T16:47:54.564Z,97844.16
2023-07-20T16:50:21.431Z,97832.00
2023-07-20T16:52:47.952Z,97838.13
2023-07-20T16:55:15.479Z,97835.22
2023-07-20T16:57:42.022Z,97832.28
2023-07-20T17:00:11.864Z,97835.50
2023-07-20T17:02:38.995Z,97830.53
2023-07-20T17:05:13.496Z,97836.94
2023-07-20T17:07:40.677Z,97837.38
2023-07-20T17:10:08.327Z,97835.03
2023-07-20T17:12:36.354Z,97835.03
2023-07-20T17:15:02.880Z,97835.00
2023-07-20T17:17:29.430Z,97827.25
2023-07-20T17:22:25.383Z,97838.09
2023-07-20T17:27:21.275Z,97836.94
2023-07-20T17:29:47.840Z,97841.16
2023-07-20T17:32:14.438Z,97832.41
2023-07-20T17:34:41.381Z,97835.34
2023-07-20T17:44:37.317Z,97840.69
2023-07-20T17:49:33.514Z,97841.00
2023-07-20T17:52:00.112Z,97840.16
2023-07-20T17:54:26.612Z,97846.38
2023-07-20T17:56:53.189Z,97840.16
2023-07-20T17:59:20.365Z,97835.47
2023-07-20T18:01:46.858Z,97833.66
2023-07-20T18:04:13.891Z,97837.66
2023-07-20T18:06:40.469Z,97843.59
2023-07-20T18:09:08.297Z,97847.50
2023-07-20T18:11:35.116Z,97841.84
2023-07-20T18:14:02.151Z,97838.63
2023-07-20T18:16:28.806Z,97839.72
2023-07-20T18:18:56.364Z,97840.00
2023-07-20T18:21:23.919Z,97846.09
2023-07-20T18:23:52.351Z,97843.28
2023-07-20T18:26:20.092Z,97842.34
2023-07-20T18:28:46.654Z,97830.56
2023-07-20T18:31:13.204Z,97841.59
2023-07-20T18:33:40.168Z,97837.16
2023-07-20T18:36:07.681Z,97835.22
2023-07-20T18:38:34.884Z,97847.91
2023-07-20T18:41:01.432Z,97849.16
2023-07-20T18:43:28.220Z,97847.47
2023-07-20T18:45:55.500Z,97844.06
2023-07-20T18:48:22.261Z,97844.72
2023-07-20T18:50:48.986Z,97848.03
2023-07-20T18:53:15.469Z,97848.81
2023-07-20T18:55:41.969Z,97850.97
2023-07-20T18:58:08.552Z,97849.81
2023-07-20T19:00:35.049Z,97852.75
2023-07-20T19:03:01.728Z,97847.78
2023-07-20T19:05:28.265Z,97854.88
2023-07-20T19:07:54.941Z,97859.56
2023-07-20T19:10:21.434Z,97855.75
2023-07-20T19:12:47.929Z,97862.22
2023-07-20T19:15:14.690Z,97855.31
2023-07-20T19:17:41.724Z,97856.03
2023-07-20T19:20:08.965Z,97851.81
2023-07-20T19:22:35.456Z,97862.19
2023-07-20T19:25:01.926Z,97861.25
2023-07-20T19:27:29.814Z,97856.25
2023-07-20T19:29:56.492Z,97865.78
2023-07-20T19:32:22.966Z,97871.88
2023-07-20T19:34:49.450Z,97884.94
2023-07-20T19:37:16.496Z,97887.31
2023-07-20T19:39:44.650Z,97882.78
2023-07-20T19:42:11.553Z,97886.56
2023-07-20T19:44:38.199Z,97882.63
2023-07-20T19:47:07.495Z,97895.25
2023-07-20T19:49:34.029Z,97895.13
2023-07-20T19:52:00.553Z,97897.72
2023-07-20T19:56:56.800Z,97898.38
2023-07-20T19:59:24.617Z,97904.09
2023-07-20T20:01:51.346Z,97901.47
2023-07-20T20:06:50.449Z,97905.72
2023-07-20T20:09:17.579Z,97907.09
2023-07-20T20:11:44.928Z,97903.47
2023-07-20T20:14:11.509Z,97901.53
2023-07-20T20:16:39.082Z,97904.25
2023-07-20T20:19:07.068Z,97910.88
2023-07-20T20:21:36.219Z,97908.50
2023-07-20T20:24:03.508Z,97916.56
2023-07-20T20:26:30.490Z,97912.25
2023-07-20T20:28:56.968Z,97903.72
2023-07-20T20:31:23.474Z,97897.75
2023-07-20T20:33:49.984Z,97898.47
2023-07-20T20:36:17.296Z,97894.53
2023-07-20T20:38:43.773Z,97895.78
2023-07-20T20:41:10.275Z,97896.25
2023-07-20T20:43:36.835Z,97902.50
2023-07-20T20:46:05.921Z,97905.34
2023-07-20T20:48:36.673Z,97900.22
2023-07-20T20:51:04.066Z,97897.72
2023-07-20T20:53:33.424Z,97898.78
2023-07-20T20:56:00.690Z,97902.84
2023-07-20T20:58:27.396Z,97896.59
2023-07-20T21:00:54.099Z,97898.34
2023-07-20T21:03:21.029Z,97897.75
2023-07-20T21:05:47.539Z,97900.69
2023-07-20T21:08:17.574Z,97896.50
2023-07-20T21:10:46.904Z,97894.22
2023-07-20T21:13:13.769Z,97901.13
2023-07-20T21:15:41.878Z,97894.00
2023-07-20T21:18:08.842Z,97901.84
2023-07-20T21:20:35.813Z,97895.91
2023-07-20T21:23:03.124Z,97893.78
2023-07-20T21:25:29.688Z,97894.34
2023-07-20T21:27:56.144Z,97890.69
2023-07-20T21:30:24.390Z,97889.81
2023-07-20T21:32:50.988Z,97890.88
2023-07-20T21:35:17.702Z,97890.97
2023-07-20T21:37:44.189Z,97895.66
2023-07-20T21:40:11.033Z,97892.94
2023-07-20T21:42:38.394Z,97885.84
2023-07-20T21:45:05.436Z,97884.19
2023-07-20T21:47:32.054Z,97874.56
2023-07-20T21:50:00.509Z,97882.31
2023-07-20T21:52:27.158Z,97879.72
2023-07-20T21:54:53.875Z,97876.47
2023-07-20T21:57:20.560Z,97885.84
2023-07-20T21:59:47.228Z,97879.91
2023-07-20T22:02:13.869Z,97875.50
2023-07-20T22:04:40.570Z,97871.94
2023-07-20T22:07:14.739Z,97882.31
2023-07-20T22:09:45.711Z,97878.66
2023-07-20T22:12:13.599Z,97874.88
2023-07-20T22:14:40.897Z,97880.75
2023-07-20T22:17:08.231Z,97878.56
2023-07-20T22:19:35.724Z,97887.56
2023-07-20T22:22:06.479Z,97877.72
2023-07-20T22:24:36.074Z,97882.84
2023-07-20T22:27:05.101Z,97878.75
2023-07-20T22:29:32.088Z,97877.28
2023-07-20T22:31:59.453Z,97875.13
2023-07-20T22:34:28.174Z,97870.72
2023-07-20T22:36:54.976Z,97866.84
2023-07-20T22:39:21.561Z,97868.31
2023-07-20T22:41:48.166Z,97875.63
2023-07-20T22:44:15.685Z,97874.03
2023-07-20T22:46:42.511Z,97876.06
2023-07-20T22:49:09.212Z,97874.38
2023-07-20T22:51:35.853Z,97875.31
2023-07-20T22:54:02.435Z,97869.44
2023-07-20T22:56:29.536Z,97863.69
2023-07-20T22:58:56.061Z,97872.28
2023-07-20T23:01:22.664Z,97863.41
2023-07-20T23:03:49.619Z,97864.25
2023-07-20T23:06:16.405Z,97858.31
2023-07-20T23:08:44.211Z,97861.03
2023-07-20T23:11:13.158Z,97864.78
2023-07-20T23:13:41.376Z,97860.38
2023-07-20T23:16:09.431Z,97862.88
2023-07-20T23:18:36.892Z,97864.25
2023-07-20T23:21:05.078Z,97872.41
2023-07-20T23:23:32.925Z,97869.78
2023-07-20T23:25:59.439Z,97874.06
2023-07-20T23:28:26.000Z,97878.97
2023-07-20T23:30:52.551Z,97871.47
2023-07-20T23:33:23.084Z,97866.47
2023-07-20T23:35:50.114Z,97865.75
2023-07-20T23:38:17.576Z,97857.38
2023-07-20T23:40:44.203Z,97857.69
2023-07-20T23:43:10.655Z,97862.41
2023-07-20T23:45:38.032Z,97857.47
2023-07-20T23:48:09.761Z,97856.66
2023-07-20T23:50:37.798Z,97863.88
2023-07-20T23:53:04.567Z,97860.00
2023-07-20T23:55:31.097Z,97861.94
2023-07-20T23:57:58.393Z,97858.94
